sensor_id;sensor_type;location;lat;lon;timestamp;P1;durP1;ratioP1;P2;durP2;ratioP2
7517;SDS011;3800;48.922;9.444;2022-08-19T00:00:54;11.53;;;10.47;;
7517;SDS011;3800;48.922;9.444;2022-08-19T00:03:22;11.93;;;10.93;;
7517;SDS011;3800;48.922;9.444;2022-08-19T00:05:52;10.57;;;9.67;;
7517;SDS011;3800;48.922;9.444;2022-08-19T00:08:20;10.20;;;9.30;;
7517;SDS011;3800;48.922;9.444;2022-08-19T00:10:48;11.07;;;10.17;;
7517;SDS011;3800;48.922;9.444;2022-08-19T00:13:16;11.40;;;10.50;;
7517;SDS011;3800;48.922;9.444;2022-08-19T00:15:46;11.50;;;10.47;;
7517;SDS011;3800;48.922;9.444;2022-08-19T00:18:14;11.70;;;10.70;;
7517;SDS011;3800;48.922;9.444;2022-08-19T00:20:42;11.37;;;10.27;;
7517;SDS011;3800;48.922;9.444;2022-08-19T00:23:10;11.83;;;10.73;;
7517;SDS011;3800;48.922;9.444;2022-08-19T00:25:39;12.07;;;11.07;;
7517;SDS011;3800;48.922;9.444;2022-08-19T00:28:07;13.03;;;10.53;;
7517;SDS011;3800;48.922;9.444;2022-08-19T00:30:35;11.20;;;10.30;;
7517;SDS011;3800;48.922;9.444;2022-08-19T00:33:03;11.47;;;10.47;;
7517;SDS011;3800;48.922;9.444;2022-08-19T00:35:32;11.90;;;10.90;;
7517;SDS011;3800;48.922;9.444;2022-08-19T00:38:00;11.30;;;10.40;;
7517;SDS011;3800;48.922;9.444;2022-08-19T00:40:28;11.43;;;10.43;;
7517;SDS011;3800;48.922;9.444;2022-08-19T00:42:56;11.47;;;10.47;;
7517;SDS011;3800;48.922;9.444;2022-08-19T00:45:26;11.63;;;10.63;;
7517;SDS011;3800;48.922;9.444;2022-08-19T00:47:53;11.90;;;10.90;;
7517;SDS011;3800;48.922;9.444;2022-08-19T00:50:21;11.83;;;10.77;;
7517;SDS011;3800;48.922;9.444;2022-08-19T00:52:50;12.23;;;11.20;;
7517;SDS011;3800;48.922;9.444;2022-08-19T00:55:20;12.03;;;11.03;;
7517;SDS011;3800;48.922;9.444;2022-08-19T00:57:50;11.60;;;10.60;;
7517;SDS011;3800;48.922;9.444;2022-08-19T01:00:19;11.77;;;10.73;;
7517;SDS011;3800;48.922;9.444;2022-08-19T01:02:47;11.97;;;10.93;;
7517;SDS011;3800;48.922;9.444;2022-08-19T01:05:17;11.87;;;10.87;;
7517;SDS011;3800;48.922;9.444;2022-08-19T01:07:44;12.07;;;11.07;;
7517;SDS011;3800;48.922;9.444;2022-08-19T01:10:15;12.07;;;10.93;;
7517;SDS011;3800;48.922;9.444;2022-08-19T01:12:42;12.30;;;11.20;;
7517;SDS011;3800;48.922;9.444;2022-08-19T01:15:11;11.80;;;10.77;;
7517;SDS011;3800;48.922;9.444;2022-08-19T01:17:39;12.47;;;11.37;;
7517;SDS011;3800;48.922;9.444;2022-08-19T01:20:10;11.70;;;10.70;;
7517;SDS011;3800;48.922;9.444;2022-08-19T01:22:40;12.37;;;11.27;;
7517;SDS011;3800;48.922;9.444;2022-08-19T01:25:10;11.57;;;10.57;;
7517;SDS011;3800;48.922;9.444;2022-08-19T01:27:39;12.40;;;11.20;;
7517;SDS011;3800;48.922;9.444;2022-08-19T01:30:08;12.20;;;11.20;;
7517;SDS011;3800;48.922;9.444;2022-08-19T01:32:37;11.63;;;10.63;;
7517;SDS011;3800;48.922;9.444;2022-08-19T01:35:05;11.97;;;10.97;;
7517;SDS011;3800;48.922;9.444;2022-08-19T01:40:24;12.00;;;11.00;;
7517;SDS011;3800;48.922;9.444;2022-08-19T01:42:52;11.70;;;10.60;;
7517;SDS011;3800;48.922;9.444;2022-08-19T01:45:21;11.83;;;10.83;;
7517;SDS011;3800;48.922;9.444;2022-08-19T01:47:48;13.50;;;12.20;;
7517;SDS011;3800;48.922;9.444;2022-08-19T01:50:17;12.70;;;11.70;;
7517;SDS011;3800;48.922;9.444;2022-08-19T01:52:46;13.43;;;12.23;;
7517;SDS011;3800;48.922;9.444;2022-08-19T01:55:15;12.20;;;11.10;;
7517;SDS011;3800;48.922;9.444;2022-08-19T01:57:44;12.53;;;11.27;;
7517;SDS011;3800;48.922;9.444;2022-08-19T02:00:12;12.70;;;11.60;;
7517;SDS011;3800;48.922;9.444;2022-08-19T02:02:40;12.63;;;11.53;;
7517;SDS011;3800;48.922;9.444;2022-08-19T02:05:09;14.00;;;12.70;;
7517;SDS011;3800;48.922;9.444;2022-08-19T02:07:38;13.10;;;11.70;;
7517;SDS011;3800;48.922;9.444;2022-08-19T02:10:07;12.70;;;11.60;;
7517;SDS011;3800;48.922;9.444;2022-08-19T02:12:35;13.37;;;12.17;;
7517;SDS011;3800;48.922;9.444;2022-08-19T02:15:04;14.10;;;12.80;;
7517;SDS011;3800;48.922;9.444;2022-08-19T02:17:34;14.17;;;12.87;;
7517;SDS011;3800;48.922;9.444;2022-08-19T02:20:04;13.40;;;12.20;;
7517;SDS011;3800;48.922;9.444;2022-08-19T02:22:33;13.70;;;12.50;;
7517;SDS011;3800;48.922;9.444;2022-08-19T02:25:01;13.80;;;12.60;;
7517;SDS011;3800;48.922;9.444;2022-08-19T02:27:30;14.30;;;12.97;;
7517;SDS011;3800;48.922;9.444;2022-08-19T02:29:58;14.80;;;13.30;;
7517;SDS011;3800;48.922;9.444;2022-08-19T02:32:26;13.87;;;12.57;;
7517;SDS011;3800;48.922;9.444;2022-08-19T02:34:55;13.73;;;12.53;;
7517;SDS011;3800;48.922;9.444;2022-08-19T02:37:23;14.47;;;13.13;;
7517;SDS011;3800;48.922;9.444;2022-08-19T02:39:57;13.47;;;12.20;;
7517;SDS011;3800;48.922;9.444;2022-08-19T02:42:25;13.80;;;12.40;;
7517;SDS011;3800;48.922;9.444;2022-08-19T02:44:55;15.83;;;13.17;;
7517;SDS011;3800;48.922;9.444;2022-08-19T02:47:21;15.33;;;13.73;;
7517;SDS011;3800;48.922;9.444;2022-08-19T02:49:50;14.60;;;13.20;;
7517;SDS011;3800;48.922;9.444;2022-08-19T02:52:19;15.07;;;13.67;;
7517;SDS011;3800;48.922;9.444;2022-08-19T02:54:47;14.77;;;13.37;;
7517;SDS011;3800;48.922;9.444;2022-08-19T02:57:15;14.43;;;13.07;;
7517;SDS011;3800;48.922;9.444;2022-08-19T02:59:44;14.77;;;13.47;;
7517;SDS011;3800;48.922;9.444;2022-08-19T03:02:12;14.93;;;13.53;;
7517;SDS011;3800;48.922;9.444;2022-08-19T03:04:40;15.77;;;14.27;;
7517;SDS011;3800;48.922;9.444;2022-08-19T03:07:09;15.10;;;13.60;;
7517;SDS011;3800;48.922;9.444;2022-08-19T03:09:37;14.50;;;13.20;;
7517;SDS011;3800;48.922;9.444;2022-08-19T03:12:06;15.30;;;13.90;;
7517;SDS011;3800;48.922;9.444;2022-08-19T03:14:34;14.30;;;12.97;;
7517;SDS011;3800;48.922;9.444;2022-08-19T03:17:03;16.53;;;14.93;;
7517;SDS011;3800;48.922;9.444;2022-08-19T03:19:31;15.50;;;14.00;;
7517;SDS011;3800;48.922;9.444;2022-08-19T03:22:00;14.97;;;13.57;;
7517;SDS011;3800;48.922;9.444;2022-08-19T03:24:30;16.27;;;14.63;;
7517;SDS011;3800;48.922;9.444;2022-08-19T03:26:58;15.77;;;14.17;;
7517;SDS011;3800;48.922;9.444;2022-08-19T03:29:27;16.00;;;14.60;;
7517;SDS011;3800;48.922;9.444;2022-08-19T03:31:55;15.93;;;14.30;;
7517;SDS011;3800;48.922;9.444;2022-08-19T03:34:26;16.40;;;14.80;;
7517;SDS011;3800;48.922;9.444;2022-08-19T03:36:53;14.90;;;13.50;;
7517;SDS011;3800;48.922;9.444;2022-08-19T03:39:21;15.67;;;14.17;;
7517;SDS011;3800;48.922;9.444;2022-08-19T03:41:49;17.33;;;15.50;;
7517;SDS011;3800;48.922;9.444;2022-08-19T03:44:18;15.80;;;14.20;;
7517;SDS011;3800;48.922;9.444;2022-08-19T03:46:46;15.30;;;13.87;;
7517;SDS011;3800;48.922;9.444;2022-08-19T03:49:14;16.80;;;15.20;;
7517;SDS011;3800;48.922;9.444;2022-08-19T03:51:43;16.03;;;14.50;;
7517;SDS011;3800;48.922;9.444;2022-08-19T03:54:12;16.70;;;15.00;;
7517;SDS011;3800;48.922;9.444;2022-08-19T03:56:41;17.53;;;15.00;;
7517;SDS011;3800;48.922;9.444;2022-08-19T03:59:09;16.10;;;14.50;;
7517;SDS011;3800;48.922;9.444;2022-08-19T04:01:36;17.63;;;15.83;;
7517;SDS011;3800;48.922;9.444;2022-08-19T04:04:04;16.77;;;15.07;;
7517;SDS011;3800;48.922;9.444;2022-08-19T04:06:34;18.40;;;16.50;;
7517;SDS011;3800;48.922;9.444;2022-08-19T04:09:03;19.40;;;16.60;;
7517;SDS011;3800;48.922;9.444;2022-08-19T04:11:33;20.23;;;16.33;;
7517;SDS011;3800;48.922;9.444;2022-08-19T04:13:58;18.73;;;16.77;;
7517;SDS011;3800;48.922;9.444;2022-08-19T04:16:27;19.77;;;17.87;;
7517;SDS011;3800;48.922;9.444;2022-08-19T04:18:56;19.80;;;17.47;;
7517;SDS011;3800;48.922;9.444;2022-08-19T04:21:25;23.03;;;17.77;;
7517;SDS011;3800;48.922;9.444;2022-08-19T04:23:53;18.80;;;16.97;;
7517;SDS011;3800;48.922;9.444;2022-08-19T04:26:23;18.87;;;16.97;;
7517;SDS011;3800;48.922;9.444;2022-08-19T04:28:49;19.00;;;17.00;;
7517;SDS011;3800;48.922;9.444;2022-08-19T04:31:20;18.60;;;16.70;;
7517;SDS011;3800;48.922;9.444;2022-08-19T04:33:46;18.63;;;16.63;;
7517;SDS011;3800;48.922;9.444;2022-08-19T04:36:16;19.73;;;17.17;;
7517;SDS011;3800;48.922;9.444;2022-08-19T04:38:43;19.33;;;17.37;;
7517;SDS011;3800;48.922;9.444;2022-08-19T04:41:11;20.37;;;17.97;;
7517;SDS011;3800;48.922;9.444;2022-08-19T04:43:45;20.17;;;18.07;;
7517;SDS011;3800;48.922;9.444;2022-08-19T04:46:15;19.53;;;17.57;;
7517;SDS011;3800;48.922;9.444;2022-08-19T04:48:44;22.00;;;18.03;;
7517;SDS011;3800;48.922;9.444;2022-08-19T04:51:12;20.30;;;17.60;;
7517;SDS011;3800;48.922;9.444;2022-08-19T04:53:41;23.13;;;19.23;;
7517;SDS011;3800;48.922;9.444;2022-08-19T04:56:11;21.27;;;18.97;;
7517;SDS011;3800;48.922;9.444;2022-08-19T04:58:38;21.17;;;18.97;;
7517;SDS011;3800;48.922;9.444;2022-08-19T05:01:06;21.53;;;18.77;;
7517;SDS011;3800;48.922;9.444;2022-08-19T05:03:35;24.07;;;19.57;;
7517;SDS011;3800;48.922;9.444;2022-08-19T05:06:05;21.43;;;18.20;;
7517;SDS011;3800;48.922;9.444;2022-08-19T05:08:35;22.67;;;19.13;;
7517;SDS011;3800;48.922;9.444;2022-08-19T05:11:08;23.00;;;19.47;;
7517;SDS011;3800;48.922;9.444;2022-08-19T05:13:35;21.03;;;18.60;;
7517;SDS011;3800;48.922;9.444;2022-08-19T05:16:03;21.00;;;18.90;;
7517;SDS011;3800;48.922;9.444;2022-08-19T05:18:32;21.27;;;18.93;;
7517;SDS011;3800;48.922;9.444;2022-08-19T05:21:07;23.17;;;19.30;;
7517;SDS011;3800;48.922;9.444;2022-08-19T05:23:41;22.93;;;19.87;;
7517;SDS011;3800;48.922;9.444;2022-08-19T05:26:09;22.53;;;18.47;;
7517;SDS011;3800;48.922;9.444;2022-08-19T05:28:37;23.80;;;18.27;;
7517;SDS011;3800;48.922;9.444;2022-08-19T05:31:05;20.63;;;18.20;;
7517;SDS011;3800;48.922;9.444;2022-08-19T05:33:34;28.97;;;18.00;;
7517;SDS011;3800;48.922;9.444;2022-08-19T05:36:02;22.10;;;18.20;;
7517;SDS011;3800;48.922;9.444;2022-08-19T05:38:31;23.17;;;19.73;;
7517;SDS011;3800;48.922;9.444;2022-08-19T05:40:59;22.20;;;17.50;;
7517;SDS011;3800;48.922;9.444;2022-08-19T05:43:27;20.50;;;18.40;;
7517;SDS011;3800;48.922;9.444;2022-08-19T05:45:56;19.83;;;17.73;;
7517;SDS011;3800;48.922;9.444;2022-08-19T05:48:25;21.27;;;19.07;;
7517;SDS011;3800;48.922;9.444;2022-08-19T05:50:54;20.40;;;17.87;;
7517;SDS011;3800;48.922;9.444;2022-08-19T05:53:22;20.90;;;18.53;;
7517;SDS011;3800;48.922;9.444;2022-08-19T05:55:50;19.57;;;17.67;;
7517;SDS011;3800;48.922;9.444;2022-08-19T05:58:18;20.90;;;18.50;;
7517;SDS011;3800;48.922;9.444;2022-08-19T06:00:47;20.60;;;18.40;;
7517;SDS011;3800;48.922;9.444;2022-08-19T06:03:16;21.47;;;19.13;;
7517;SDS011;3800;48.922;9.444;2022-08-19T06:05:44;19.57;;;17.57;;
7517;SDS011;3800;48.922;9.444;2022-08-19T06:08:12;18.67;;;16.70;;
7517;SDS011;3800;48.922;9.444;2022-08-19T06:10:41;20.63;;;18.53;;
7517;SDS011;3800;48.922;9.444;2022-08-19T06:13:09;19.70;;;17.57;;
7517;SDS011;3800;48.922;9.444;2022-08-19T06:15:37;20.53;;;18.40;;
7517;SDS011;3800;48.922;9.444;2022-08-19T06:18:07;20.60;;;18.37;;
7517;SDS011;3800;48.922;9.444;2022-08-19T06:20:35;23.63;;;19.60;;
7517;SDS011;3800;48.922;9.444;2022-08-19T06:23:03;23.17;;;18.77;;
7517;SDS011;3800;48.922;9.444;2022-08-19T06:25:32;22.03;;;19.53;;
7517;SDS011;3800;48.922;9.444;2022-08-19T06:28:00;20.97;;;18.77;;
7517;SDS011;3800;48.922;9.444;2022-08-19T06:30:29;44.83;;;33.77;;
7517;SDS011;3800;48.922;9.444;2022-08-19T06:32:58;33.13;;;28.17;;
7517;SDS011;3800;48.922;9.444;2022-08-19T06:35:27;24.03;;;21.07;;
7517;SDS011;3800;48.922;9.444;2022-08-19T06:37:55;23.67;;;20.77;;
7517;SDS011;3800;48.922;9.444;2022-08-19T06:40:24;24.93;;;20.60;;
7517;SDS011;3800;48.922;9.444;2022-08-19T06:42:52;24.17;;;21.33;;
7517;SDS011;3800;48.922;9.444;2022-08-19T06:45:21;22.13;;;19.83;;
7517;SDS011;3800;48.922;9.444;2022-08-19T06:47:48;29.53;;;21.47;;
7517;SDS011;3800;48.922;9.444;2022-08-19T06:50:17;25.47;;;19.63;;
7517;SDS011;3800;48.922;9.444;2022-08-19T06:52:45;24.10;;;21.47;;
7517;SDS011;3800;48.922;9.444;2022-08-19T06:55:13;21.57;;;19.50;;
7517;SDS011;3800;48.922;9.444;2022-08-19T06:57:42;21.80;;;19.60;;
7517;SDS011;3800;48.922;9.444;2022-08-19T07:00:10;24.43;;;20.87;;
7517;SDS011;3800;48.922;9.444;2022-08-19T07:02:40;24.63;;;20.47;;
7517;SDS011;3800;48.922;9.444;2022-08-19T07:05:08;22.87;;;20.67;;
7517;SDS011;3800;48.922;9.444;2022-08-19T07:07:36;22.07;;;19.93;;
7517;SDS011;3800;48.922;9.444;2022-08-19T07:10:05;24.83;;;20.23;;
7517;SDS011;3800;48.922;9.444;2022-08-19T07:12:34;23.50;;;21.13;;
7517;SDS011;3800;48.922;9.444;2022-08-19T07:15:04;24.23;;;21.63;;
7517;SDS011;3800;48.922;9.444;2022-08-19T07:17:31;24.03;;;21.53;;
7517;SDS011;3800;48.922;9.444;2022-08-19T07:20:01;23.73;;;21.43;;
7517;SDS011;3800;48.922;9.444;2022-08-19T07:22:31;25.60;;;23.03;;
7517;SDS011;3800;48.922;9.444;2022-08-19T07:24:59;24.23;;;21.83;;
7517;SDS011;3800;48.922;9.444;2022-08-19T07:27:28;24.07;;;21.63;;
7517;SDS011;3800;48.922;9.444;2022-08-19T07:29:56;25.07;;;22.30;;
7517;SDS011;3800;48.922;9.444;2022-08-19T07:32:25;26.77;;;22.57;;
7517;SDS011;3800;48.922;9.444;2022-08-19T07:34:53;26.33;;;22.23;;
7517;SDS011;3800;48.922;9.444;2022-08-19T07:37:21;24.87;;;21.73;;
7517;SDS011;3800;48.922;9.444;2022-08-19T07:39:50;26.30;;;23.53;;
7517;SDS011;3800;48.922;9.444;2022-08-19T07:42:20;24.23;;;21.50;;
7517;SDS011;3800;48.922;9.444;2022-08-19T07:44:48;25.13;;;22.53;;
7517;SDS011;3800;48.922;9.444;2022-08-19T07:47:17;24.00;;;21.50;;
7517;SDS011;3800;48.922;9.444;2022-08-19T07:49:45;26.17;;;23.47;;
7517;SDS011;3800;48.922;9.444;2022-08-19T07:52:13;25.03;;;22.43;;
7517;SDS011;3800;48.922;9.444;2022-08-19T07:54:41;23.57;;;21.17;;
7517;SDS011;3800;48.922;9.444;2022-08-19T07:57:10;24.37;;;21.83;;
7517;SDS011;3800;48.922;9.444;2022-08-19T07:59:38;24.93;;;22.50;;
7517;SDS011;3800;48.922;9.444;2022-08-19T08:02:07;24.23;;;21.83;;
7517;SDS011;3800;48.922;9.444;2022-08-19T08:04:34;25.43;;;22.63;;
7517;SDS011;3800;48.922;9.444;2022-08-19T08:07:08;25.30;;;22.60;;
7517;SDS011;3800;48.922;9.444;2022-08-19T08:09:42;25.43;;;22.20;;
7517;SDS011;3800;48.922;9.444;2022-08-19T08:12:12;24.20;;;21.70;;
7517;SDS011;3800;48.922;9.444;2022-08-19T08:14:43;23.93;;;21.53;;
7517;SDS011;3800;48.922;9.444;2022-08-19T08:17:10;26.57;;;22.57;;
7517;SDS011;3800;48.922;9.444;2022-08-19T08:19:38;23.10;;;20.70;;
7517;SDS011;3800;48.922;9.444;2022-08-19T08:22:06;24.80;;;21.63;;
7517;SDS011;3800;48.922;9.444;2022-08-19T08:24:34;22.90;;;20.70;;
7517;SDS011;3800;48.922;9.444;2022-08-19T08:27:03;22.77;;;20.47;;
7517;SDS011;3800;48.922;9.444;2022-08-19T08:29:32;23.73;;;21.33;;
7517;SDS011;3800;48.922;9.444;2022-08-19T08:32:00;22.70;;;20.50;;
7517;SDS011;3800;48.922;9.444;2022-08-19T08:34:28;22.53;;;19.83;;
7517;SDS011;3800;48.922;9.444;2022-08-19T08:36:57;22.57;;;20.17;;
7517;SDS011;3800;48.922;9.444;2022-08-19T08:39:25;20.07;;;18.17;;
7517;SDS011;3800;48.922;9.444;2022-08-19T08:41:58;22.10;;;19.20;;
7517;SDS011;3800;48.922;9.444;2022-08-19T08:44:58;21.10;;;18.87;;
7517;SDS011;3800;48.922;9.444;2022-08-19T08:47:26;21.93;;;18.80;;
7517;SDS011;3800;48.922;9.444;2022-08-19T08:49:55;22.33;;;19.40;;
7517;SDS011;3800;48.922;9.444;2022-08-19T08:52:24;23.77;;;19.50;;
7517;SDS011;3800;48.922;9.444;2022-08-19T08:54:53;21.43;;;19.33;;
7517;SDS011;3800;48.922;9.444;2022-08-19T08:57:28;22.53;;;18.90;;
7517;SDS011;3800;48.922;9.444;2022-08-19T09:00:07;21.30;;;18.93;;
7517;SDS011;3800;48.922;9.444;2022-08-19T09:02:34;22.27;;;19.97;;
7517;SDS011;3800;48.922;9.444;2022-08-19T09:05:03;21.80;;;19.60;;
7517;SDS011;3800;48.922;9.444;2022-08-19T09:07:41;23.37;;;19.83;;
7517;SDS011;3800;48.922;9.444;2022-08-19T09:10:22;22.40;;;19.87;;
7517;SDS011;3800;48.922;9.444;2022-08-19T09:13:03;21.53;;;19.33;;
7517;SDS011;3800;48.922;9.444;2022-08-19T09:15:52;22.97;;;20.57;;
7517;SDS011;3800;48.922;9.444;2022-08-19T09:18:22;21.20;;;19.00;;
7517;SDS011;3800;48.922;9.444;2022-08-19T09:20:50;23.50;;;21.00;;
7517;SDS011;3800;48.922;9.444;2022-08-19T09:23:19;23.97;;;21.03;;
7517;SDS011;3800;48.922;9.444;2022-08-19T09:25:47;20.53;;;18.53;;
7517;SDS011;3800;48.922;9.444;2022-08-19T09:28:15;21.43;;;19.13;;
7517;SDS011;3800;48.922;9.444;2022-08-19T09:30:44;22.13;;;19.47;;
7517;SDS011;3800;48.922;9.444;2022-08-19T09:33:12;23.40;;;19.80;;
7517;SDS011;3800;48.922;9.444;2022-08-19T09:35:40;22.40;;;19.97;;
7517;SDS011;3800;48.922;9.444;2022-08-19T09:38:09;22.00;;;19.50;;
7517;SDS011;3800;48.922;9.444;2022-08-19T09:40:37;21.20;;;18.17;;
7517;SDS011;3800;48.922;9.444;2022-08-19T09:43:06;22.27;;;19.03;;
7517;SDS011;3800;48.922;9.444;2022-08-19T09:45:34;20.90;;;18.60;;
7517;SDS011;3800;48.922;9.444;2022-08-19T09:48:03;19.33;;;17.43;;
7517;SDS011;3800;48.922;9.444;2022-08-19T09:50:31;20.73;;;18.63;;
7517;SDS011;3800;48.922;9.444;2022-08-19T09:53:00;21.30;;;19.00;;
7517;SDS011;3800;48.922;9.444;2022-08-19T09:55:29;22.27;;;20.07;;
7517;SDS011;3800;48.922;9.444;2022-08-19T09:57:57;20.57;;;18.37;;
7517;SDS011;3800;48.922;9.444;2022-08-19T10:00:26;22.10;;;19.07;;
7517;SDS011;3800;48.922;9.444;2022-08-19T10:02:55;23.33;;;20.50;;
7517;SDS011;3800;48.922;9.444;2022-08-19T10:05:24;21.27;;;19.07;;
7517;SDS011;3800;48.922;9.444;2022-08-19T10:07:58;24.37;;;20.00;;
7517;SDS011;3800;48.922;9.444;2022-08-19T10:10:26;23.83;;;21.27;;
7517;SDS011;3800;48.922;9.444;2022-08-19T10:12:54;23.67;;;21.17;;
7517;SDS011;3800;48.922;9.444;2022-08-19T10:15:23;25.10;;;21.63;;
7517;SDS011;3800;48.922;9.444;2022-08-19T10:17:51;25.87;;;21.77;;
7517;SDS011;3800;48.922;9.444;2022-08-19T10:20:20;24.73;;;22.10;;
7517;SDS011;3800;48.922;9.444;2022-08-19T10:22:49;22.07;;;19.80;;
7517;SDS011;3800;48.922;9.444;2022-08-19T10:25:17;24.10;;;21.60;;
7517;SDS011;3800;48.922;9.444;2022-08-19T10:27:45;23.47;;;20.97;;
7517;SDS011;3800;48.922;9.444;2022-08-19T10:30:13;22.20;;;19.90;;
7517;SDS011;3800;48.922;9.444;2022-08-19T10:32:43;23.70;;;21.30;;
7517;SDS011;3800;48.922;9.444;2022-08-19T10:35:12;25.80;;;21.67;;
7517;SDS011;3800;48.922;9.444;2022-08-19T10:37:40;24.33;;;21.80;;
7517;SDS011;3800;48.922;9.444;2022-08-19T10:40:08;24.37;;;21.47;;
7517;SDS011;3800;48.922;9.444;2022-08-19T10:42:37;24.53;;;21.93;;
7517;SDS011;3800;48.922;9.444;2022-08-19T10:45:05;23.40;;;20.90;;
7517;SDS011;3800;48.922;9.444;2022-08-19T10:47:35;24.47;;;21.80;;
7517;SDS011;3800;48.922;9.444;2022-08-19T10:50:03;24.97;;;22.37;;
7517;SDS011;3800;48.922;9.444;2022-08-19T10:52:37;26.13;;;23.43;;
7517;SDS011;3800;48.922;9.444;2022-08-19T10:55:07;25.93;;;22.33;;
7517;SDS011;3800;48.922;9.444;2022-08-19T10:57:41;25.93;;;23.00;;
7517;SDS011;3800;48.922;9.444;2022-08-19T11:00:12;25.67;;;22.57;;
7517;SDS011;3800;48.922;9.444;2022-08-19T11:02:41;26.83;;;24.00;;
7517;SDS011;3800;48.922;9.444;2022-08-19T11:05:09;25.13;;;22.67;;
7517;SDS011;3800;48.922;9.444;2022-08-19T11:07:39;24.77;;;22.13;;
7517;SDS011;3800;48.922;9.444;2022-08-19T11:10:08;23.47;;;21.17;;
7517;SDS011;3800;48.922;9.444;2022-08-19T11:12:36;25.47;;;22.87;;
7517;SDS011;3800;48.922;9.444;2022-08-19T11:15:05;27.43;;;24.70;;
7517;SDS011;3800;48.922;9.444;2022-08-19T11:17:34;22.63;;;20.43;;
7517;SDS011;3800;48.922;9.444;2022-08-19T11:20:03;25.60;;;23.00;;
7517;SDS011;3800;48.922;9.444;2022-08-19T11:22:32;26.07;;;23.23;;
7517;SDS011;3800;48.922;9.444;2022-08-19T11:25:00;28.07;;;25.17;;
7517;SDS011;3800;48.922;9.444;2022-08-19T11:27:29;26.30;;;23.63;;
7517;SDS011;3800;48.922;9.444;2022-08-19T11:29:59;24.20;;;21.80;;
7517;SDS011;3800;48.922;9.444;2022-08-19T11:32:27;25.30;;;22.70;;
7517;SDS011;3800;48.922;9.444;2022-08-19T11:34:55;24.20;;;21.70;;
7517;SDS011;3800;48.922;9.444;2022-08-19T11:37:23;24.67;;;22.17;;
7517;SDS011;3800;48.922;9.444;2022-08-19T11:39:52;25.57;;;22.87;;
7517;SDS011;3800;48.922;9.444;2022-08-19T11:42:20;25.87;;;23.07;;
7517;SDS011;3800;48.922;9.444;2022-08-19T11:44:54;24.63;;;22.23;;
7517;SDS011;3800;48.922;9.444;2022-08-19T11:47:22;24.03;;;21.57;;
7517;SDS011;3800;48.922;9.444;2022-08-19T11:49:51;25.17;;;21.27;;
7517;SDS011;3800;48.922;9.444;2022-08-19T11:52:19;27.27;;;24.60;;
7517;SDS011;3800;48.922;9.444;2022-08-19T11:54:47;25.90;;;23.17;;
7517;SDS011;3800;48.922;9.444;2022-08-19T11:57:16;29.10;;;26.07;;
7517;SDS011;3800;48.922;9.444;2022-08-19T11:59:48;24.57;;;22.17;;
7517;SDS011;3800;48.922;9.444;2022-08-19T12:02:16;26.33;;;22.83;;
7517;SDS011;3800;48.922;9.444;2022-08-19T12:04:44;27.73;;;24.73;;
7517;SDS011;3800;48.922;9.444;2022-08-19T12:07:12;25.07;;;22.47;;
7517;SDS011;3800;48.922;9.444;2022-08-19T12:09:41;22.67;;;20.53;;
7517;SDS011;3800;48.922;9.444;2022-08-19T12:12:09;25.60;;;22.87;;
7517;SDS011;3800;48.922;9.444;2022-08-19T12:14:37;23.07;;;20.67;;
7517;SDS011;3800;48.922;9.444;2022-08-19T12:17:05;27.53;;;22.80;;
7517;SDS011;3800;48.922;9.444;2022-08-19T12:19:35;24.37;;;21.63;;
7517;SDS011;3800;48.922;9.444;2022-08-19T12:22:02;23.47;;;20.97;;
7517;SDS011;3800;48.922;9.444;2022-08-19T12:24:31;24.67;;;22.10;;
7517;SDS011;3800;48.922;9.444;2022-08-19T12:27:00;24.37;;;21.97;;
7517;SDS011;3800;48.922;9.444;2022-08-19T12:29:28;25.30;;;22.33;;
7517;SDS011;3800;48.922;9.444;2022-08-19T12:31:57;23.20;;;21.10;;
7517;SDS011;3800;48.922;9.444;2022-08-19T12:34:25;22.77;;;20.47;;
7517;SDS011;3800;48.922;9.444;2022-08-19T12:36:53;22.77;;;20.47;;
7517;SDS011;3800;48.922;9.444;2022-08-19T12:39:21;21.27;;;19.07;;
7517;SDS011;3800;48.922;9.444;2022-08-19T12:41:50;24.07;;;21.67;;
7517;SDS011;3800;48.922;9.444;2022-08-19T12:44:19;23.40;;;21.03;;
7517;SDS011;3800;48.922;9.444;2022-08-19T12:46:47;22.67;;;20.27;;
7517;SDS011;3800;48.922;9.444;2022-08-19T12:49:15;22.57;;;20.27;;
7517;SDS011;3800;48.922;9.444;2022-08-19T12:51:43;23.87;;;21.47;;
7517;SDS011;3800;48.922;9.444;2022-08-19T12:54:12;20.67;;;18.63;;
7517;SDS011;3800;48.922;9.444;2022-08-19T12:56:40;21.70;;;19.43;;
7517;SDS011;3800;48.922;9.444;2022-08-19T12:59:09;21.20;;;19.10;;
7517;SDS011;3800;48.922;9.444;2022-08-19T13:01:38;19.37;;;17.40;;
7517;SDS011;3800;48.922;9.444;2022-08-19T13:04:07;18.17;;;16.37;;
7517;SDS011;3800;48.922;9.444;2022-08-19T13:06:35;16.37;;;14.63;;
7517;SDS011;3800;48.922;9.444;2022-08-19T13:09:04;18.77;;;16.97;;
7517;SDS011;3800;48.922;9.444;2022-08-19T13:11:32;18.40;;;16.43;;
7517;SDS011;3800;48.922;9.444;2022-08-19T13:14:01;17.73;;;16.07;;
7517;SDS011;3800;48.922;9.444;2022-08-19T13:16:29;18.47;;;16.83;;
7517;SDS011;3800;48.922;9.444;2022-08-19T13:18:58;19.53;;;17.53;;
7517;SDS011;3800;48.922;9.444;2022-08-19T13:21:28;19.40;;;17.63;;
7517;SDS011;3800;48.922;9.444;2022-08-19T13:23:56;17.27;;;15.67;;
7517;SDS011;3800;48.922;9.444;2022-08-19T13:26:25;19.03;;;17.03;;
7517;SDS011;3800;48.922;9.444;2022-08-19T13:28:53;18.57;;;16.73;;
7517;SDS011;3800;48.922;9.444;2022-08-19T13:31:28;18.43;;;16.63;;
7517;SDS011;3800;48.922;9.444;2022-08-19T13:34:02;18.70;;;16.83;;
7517;SDS011;3800;48.922;9.444;2022-08-19T13:36:32;18.80;;;17.00;;
7517;SDS011;3800;48.922;9.444;2022-08-19T13:38:59;22.00;;;18.80;;
7517;SDS011;3800;48.922;9.444;2022-08-19T13:41:28;21.50;;;19.40;;
7517;SDS011;3800;48.922;9.444;2022-08-19T13:43:56;22.30;;;20.03;;
7517;SDS011;3800;48.922;9.444;2022-08-19T13:46:24;22.17;;;19.83;;
7517;SDS011;3800;48.922;9.444;2022-08-19T13:48:52;22.07;;;19.93;;
7517;SDS011;3800;48.922;9.444;2022-08-19T13:51:21;22.43;;;20.30;;
7517;SDS011;3800;48.922;9.444;2022-08-19T13:53:49;22.17;;;19.87;;
7517;SDS011;3800;48.922;9.444;2022-08-19T13:56:17;21.07;;;19.07;;
7517;SDS011;3800;48.922;9.444;2022-08-19T13:58:46;20.03;;;18.17;;
7517;SDS011;3800;48.922;9.444;2022-08-19T14:01:18;19.77;;;17.60;;
7517;SDS011;3800;48.922;9.444;2022-08-19T14:03:45;19.33;;;16.17;;
7517;SDS011;3800;48.922;9.444;2022-08-19T14:06:14;18.37;;;16.40;;
7517;SDS011;3800;48.922;9.444;2022-08-19T14:08:42;16.47;;;15.03;;
7517;SDS011;3800;48.922;9.444;2022-08-19T14:11:10;18.13;;;16.30;;
7517;SDS011;3800;48.922;9.444;2022-08-19T14:13:39;19.00;;;17.13;;
7517;SDS011;3800;48.922;9.444;2022-08-19T14:16:08;18.23;;;16.63;;
7517;SDS011;3800;48.922;9.444;2022-08-19T14:18:37;17.87;;;16.20;;
7517;SDS011;3800;48.922;9.444;2022-08-19T14:21:05;20.30;;;17.50;;
7517;SDS011;3800;48.922;9.444;2022-08-19T14:23:34;20.00;;;17.90;;
7517;SDS011;3800;48.922;9.444;2022-08-19T14:26:06;20.73;;;18.63;;
7517;SDS011;3800;48.922;9.444;2022-08-19T14:28:33;19.67;;;17.77;;
7517;SDS011;3800;48.922;9.444;2022-08-19T14:31:02;19.93;;;18.03;;
7517;SDS011;3800;48.922;9.444;2022-08-19T14:33:32;19.60;;;17.60;;
7517;SDS011;3800;48.922;9.444;2022-08-19T14:36:01;19.67;;;17.77;;
7517;SDS011;3800;48.922;9.444;2022-08-19T14:38:30;19.83;;;17.87;;
7517;SDS011;3800;48.922;9.444;2022-08-19T14:43:35;19.07;;;17.27;;
7517;SDS011;3800;48.922;9.444;2022-08-19T14:46:03;19.97;;;17.87;;
7517;SDS011;3800;48.922;9.444;2022-08-19T14:48:32;20.93;;;18.77;;
7517;SDS011;3800;48.922;9.444;2022-08-19T14:51:01;22.57;;;20.43;;
7517;SDS011;3800;48.922;9.444;2022-08-19T14:53:30;20.77;;;18.87;;
7517;SDS011;3800;48.922;9.444;2022-08-19T14:55:58;22.60;;;20.40;;
7517;SDS011;3800;48.922;9.444;2022-08-19T14:58:27;23.53;;;21.13;;
7517;SDS011;3800;48.922;9.444;2022-08-19T15:00:56;24.63;;;22.07;;
7517;SDS011;3800;48.922;9.444;2022-08-19T15:03:25;24.33;;;21.83;;